Time;durP1;ratioP1;P1;durP2;ratioP2;P2;SDS_P1;SDS_P2;PMS_P1;PMS_P2;Temp;Humidity;BMP_temperature;BMP_pressure;BME280_temperature;BME280_humidity;BME280_pressure;Samples;Min_cycle;Max_cycle;Signal;HPM_P1;HPM_P2
2022/11/17 00:01:09;;;;;;;;;;;8.30;99.90;;;;;;5095585;27;20006;-73
2022/11/17 00:03:34;;;;;;;;;;;8.40;99.90;;;;;;5108030;28;19977;-70
2022/11/17 00:06:04;;;;;;;;;;;8.30;99.90;;;;;;5103788;28;19920;-69
2022/11/17 00:08:30;;;;;;;;;;;8.40;99.90;;;;;;5109746;27;19924;-74
2022/11/17 00:11:02;;;;;;;;;;;8.30;99.90;;;;;;5102172;27;19920;-71
2022/11/17 00:16:15;;;;;;;;;;;8.40;99.90;;;;;;5130985;27;20026;-72
2022/11/17 00:21:27;;;;;;;;;;;8.30;99.90;;;;;;5105525;28;19977;-72
2022/11/17 00:23:56;;;;;;;;;;;8.40;99.90;;;;;;5108620;27;19963;-71
2022/11/17 00:26:29;;;;;;;;;;;8.40;99.90;;;;;;5097382;27;20333;-72
2022/11/17 00:28:56;;;;;;;;;;;8.40;99.90;;;;;;5099884;28;19920;-72
2022/11/17 00:34:09;;;;;;;;;;;8.40;99.90;;;;;;5110886;27;19935;-70
2022/11/17 00:36:38;;;;;;;;;;;8.50;99.90;;;;;;5104169;27;20409;-70
2022/11/17 00:39:06;;;;;;;;;;;8.50;99.90;;;;;;5108416;28;20335;-70
2022/11/17 00:41:32;;;;;;;;;;;8.60;99.90;;;;;;5096892;27;19920;-71
2022/11/17 00:43:57;;;;;;;;;;;8.50;99.90;;;;;;5131117;27;19930;-72
2022/11/17 00:46:23;;;;;;;;;;;8.50;99.90;;;;;;5102108;27;19928;-69
2022/11/17 00:48:48;;;;;;;;;;;8.50;99.90;;;;;;5104095;28;19924;-71
2022/11/17 00:51:14;;;;;;;;;;;8.60;99.90;;;;;;5104754;28;19974;-73
2022/11/17 00:53:39;;;;;;;;;;;8.60;99.90;;;;;;5101597;27;19920;-70
2022/11/17 00:56:05;;;;;;;;;;;8.50;99.90;;;;;;5091367;28;20342;-71
2022/11/17 00:58:31;;;;;;;;;;;8.60;99.90;;;;;;5134470;27;19938;-71
2022/11/17 01:00:56;;;;;;;;;;;8.60;99.90;;;;;;5101072;28;19926;-73
2022/11/17 01:03:21;;;;;;;;;;;8.70;99.90;;;;;;5096853;28;19945;-72
2022/11/17 01:05:47;;;;;;;;;;;8.70;99.90;;;;;;5100408;27;19924;-72
2022/11/17 01:08:12;;;;;;;;;;;8.60;99.90;;;;;;5104780;28;19967;-68
2022/11/17 01:10:38;;;;;;;;;;;8.70;99.90;;;;;;5088645;28;19924;-72
2022/11/17 01:13:03;;;;;;;;;;;8.70;99.90;;;;;;5100524;28;19920;-71
2022/11/17 01:15:29;;;;;;;;;;;8.70;99.90;;;;;;5126009;27;19928;-72
2022/11/17 01:17:54;;;;;;;;;;;8.50;99.90;;;;;;5133358;27;20437;-71
2022/11/17 01:20:20;;;;;;;;;;;8.70;99.90;;;;;;5105319;27;19920;-71
2022/11/17 01:22:45;;;;;;;;;;;8.70;99.90;;;;;;5109763;28;19919;-72
2022/11/17 01:25:11;;;;;;;;;;;8.80;99.90;;;;;;5124872;27;19920;-73
2022/11/17 01:27:36;;;;;;;;;;;8.80;99.90;;;;;;5104542;28;20488;-69
2022/11/17 01:30:02;;;;;;;;;;;8.80;99.90;;;;;;5107199;28;19920;-70
2022/11/17 01:32:28;;;;;;;;;;;8.70;99.90;;;;;;5139007;27;20414;-74
2022/11/17 01:34:53;;;;;;;;;;;8.80;99.90;;;;;;5094015;28;19928;-73
2022/11/17 01:37:19;;;;;;;;;;;8.70;99.90;;;;;;5094290;28;19920;-71
2022/11/17 01:39:44;;;;;;;;;;;8.80;99.90;;;;;;5129706;27;19990;-72
2022/11/17 01:42:15;;;;;;;;;;;8.80;99.90;;;;;;5094780;28;20003;-71
2022/11/17 01:44:42;;;;;;;;;;;8.80;99.90;;;;;;5109112;28;19926;-70
2022/11/17 01:47:16;;;;;;;;;;;8.80;99.90;;;;;;5098800;28;20362;-69
2022/11/17 01:49:42;;;;;;;;;;;8.80;99.90;;;;;;5098793;28;20644;-71
2022/11/17 01:52:09;;;;;;;;;;;8.80;99.90;;;;;;5098428;28;19947;-72
2022/11/17 01:54:35;;;;;;;;;;;8.80;99.90;;;;;;5109106;28;19924;-70
2022/11/17 01:57:04;;;;;;;;;;;8.80;99.90;;;;;;5085118;28;19977;-72
2022/11/17 01:59:40;;;;;;;;;;;8.80;99.90;;;;;;5106150;28;19923;-70
2022/11/17 02:02:06;;;;;;;;;;;8.80;99.90;;;;;;5102543;28;19931;-73
2022/11/17 02:04:33;;;;;;;;;;;8.80;99.90;;;;;;5112625;28;20275;-73
2022/11/17 02:07:06;;;;;;;;;;;8.70;99.90;;;;;;5130465;27;20371;-74
2022/11/17 02:09:32;;;;;;;;;;;8.70;99.90;;;;;;5093332;28;19919;-71
2022/11/17 02:11:57;;;;;;;;;;;8.80;99.90;;;;;;5122212;27;20423;-70
2022/11/17 02:14:23;;;;;;;;;;;8.60;99.90;;;;;;5102678;28;19938;-71
2022/11/17 02:16:49;;;;;;;;;;;8.70;99.90;;;;;;5101497;28;19978;-73
2022/11/17 02:19:15;;;;;;;;;;;8.70;99.90;;;;;;5102100;28;19981;-71
2022/11/17 02:22:02;;;;;;;;;;;8.60;99.90;;;;;;5095225;28;20372;-71
2022/11/17 02:24:46;;;;;;;;;;;8.60;99.90;;;;;;5098231;27;19920;-70
2022/11/17 02:27:18;;;;;;;;;;;8.60;99.90;;;;;;5107997;28;19928;-71
2022/11/17 02:29:49;;;;;;;;;;;8.60;99.90;;;;;;5110214;27;20354;-71
2022/11/17 02:32:17;;;;;;;;;;;8.70;99.90;;;;;;5110553;27;19919;-70
2022/11/17 02:34:49;;;;;;;;;;;8.60;99.90;;;;;;5110606;27;19920;-69
2022/11/17 02:37:19;;;;;;;;;;;8.70;99.90;;;;;;5099538;28;19928;-70
2022/11/17 02:40:05;;;;;;;;;;;8.60;99.90;;;;;;5130876;27;19916;-70
2022/11/17 02:45:24;;;;;;;;;;;8.60;99.90;;;;;;5130164;27;19924;-73
2022/11/17 02:47:52;;;;;;;;;;;8.60;99.90;;;;;;5101435;28;19934;-69
2022/11/17 02:50:19;;;;;;;;;;;8.70;99.90;;;;;;5098827;28;19916;-69
2022/11/17 02:52:45;;;;;;;;;;;8.60;99.90;;;;;;5100767;28;19935;-70
2022/11/17 02:55:10;;;;;;;;;;;8.70;99.90;;;;;;5094875;28;19931;-69
2022/11/17 02:57:37;;;;;;;;;;;8.70;99.90;;;;;;5102850;28;20287;-71
2022/11/17 03:00:04;;;;;;;;;;;8.60;99.90;;;;;;5115791;27;19920;-71
2022/11/17 03:02:39;;;;;;;;;;;8.70;99.90;;;;;;5096027;27;19919;-70
2022/11/17 03:05:04;;;;;;;;;;;8.60;99.90;;;;;;5103233;28;20010;-70
2022/11/17 03:07:36;;;;;;;;;;;8.70;99.90;;;;;;5083549;28;20010;-70
2022/11/17 03:10:15;;;;;;;;;;;8.60;99.90;;;;;;5079033;27;19920;-70
2022/11/17 03:12:53;;;;;;;;;;;8.80;99.90;;;;;;5084406;28;19931;-72
2022/11/17 03:15:28;;;;;;;;;;;8.60;99.90;;;;;;5083961;28;19924;-70
2022/11/17 03:18:26;;;;;;;;;;;8.70;99.90;;;;;;5088092;27;19924;-69
2022/11/17 03:20:51;;;;;;;;;;;8.70;99.90;;;;;;5026020;28;20003;-69
2022/11/17 03:23:18;;;;;;;;;;;8.80;99.90;;;;;;5080297;28;19946;-70
2022/11/17 03:25:46;;;;;;;;;;;8.70;99.90;;;;;;5110721;27;19923;-71
2022/11/17 03:28:12;;;;;;;;;;;8.70;99.90;;;;;;5088720;28;19928;-71
2022/11/17 03:30:40;;;;;;;;;;;8.70;99.90;;;;;;5083995;28;19919;-69
2022/11/17 03:33:26;;;;;;;;;;;8.70;99.90;;;;;;5112422;27;19974;-72
2022/11/17 03:35:58;;;;;;;;;;;8.70;99.90;;;;;;5063111;28;19981;-72
2022/11/17 03:38:25;;;;;;;;;;;8.70;99.90;;;;;;5081866;28;20201;-71
2022/11/17 03:40:51;;;;;;;;;;;8.80;99.90;;;;;;5078098;28;19942;-71
2022/11/17 03:43:18;;;;;;;;;;;8.70;99.90;;;;;;5110327;27;19926;-71
2022/11/17 03:45:47;;;;;;;;;;;8.70;99.90;;;;;;5085248;28;19945;-70
2022/11/17 03:48:16;;;;;;;;;;;8.80;99.90;;;;;;5087072;28;19919;-70
2022/11/17 03:50:53;;;;;;;;;;;8.70;99.90;;;;;;5081640;28;19943;-69
2022/11/17 03:53:19;;;;;;;;;;;8.70;99.90;;;;;;5089657;28;20374;-70
2022/11/17 03:56:01;;;;;;;;;;;8.70;99.90;;;;;;5085072;28;19955;-67
2022/11/17 03:58:28;;;;;;;;;;;8.80;99.90;;;;;;5081792;28;19920;-67
2022/11/17 04:00:55;;;;;;;;;;;8.70;99.90;;;;;;5109055;27;20050;-70
2022/11/17 04:03:21;;;;;;;;;;;8.80;99.90;;;;;;5078763;28;19928;-71
2022/11/17 04:05:47;;;;;;;;;;;8.80;99.90;;;;;;5082529;27;19972;-70
2022/11/17 04:08:12;;;;;;;;;;;8.70;99.90;;;;;;5086997;28;19920;-71
2022/11/17 04:15:55;;;;;;;;;;;8.80;99.90;;;;;;5082866;27;20350;-69
2022/11/17 04:16:07;;;;;;;;;;;8.70;99.90;;;;;;5112728;27;19972;-69
2022/11/17 04:18:33;;;;;;;;;;;8.70;99.90;;;;;;5101535;28;20366;-69
2022/11/17 04:20:58;;;;;;;;;;;8.70;99.90;;;;;;5098742;27;19928;-70
2022/11/17 04:23:24;;;;;;;;;;;8.70;99.90;;;;;;5096487;28;20451;-70
2022/11/17 04:28:36;;;;;;;;;;;8.70;99.90;;;;;;5098053;28;19935;-71
2022/11/17 04:31:18;;;;;;;;;;;8.80;99.90;;;;;;5095245;27;19923;-71
2022/11/17 04:33:45;;;;;;;;;;;8.70;99.90;;;;;;5097816;28;20278;-66
2022/11/17 04:36:12;;;;;;;;;;;8.80;99.90;;;;;;5096999;27;19928;-70
2022/11/17 04:38:41;;;;;;;;;;;8.70;99.90;;;;;;5098987;27;20357;-71
2022/11/17 04:43:52;;;;;;;;;;;8.80;99.90;;;;;;5098635;27;19973;-71
2022/11/17 04:46:18;;;;;;;;;;;8.70;99.90;;;;;;5097911;27;19924;-70
2022/11/17 04:48:44;;;;;;;;;;;8.80;99.90;;;;;;5101276;28;19923;-69
2022/11/17 04:51:10;;;;;;;;;;;8.70;99.90;;;;;;5097801;28;20607;-70
2022/11/17 04:53:35;;;;;;;;;;;8.70;99.90;;;;;;5094492;28;19959;-70
2022/11/17 04:56:01;;;;;;;;;;;8.80;99.90;;;;;;5101747;28;19923;-69
2022/11/17 04:58:27;;;;;;;;;;;8.80;99.90;;;;;;5123924;27;20020;-69
2022/11/17 05:00:52;;;;;;;;;;;8.80;99.90;;;;;;5097538;28;19935;-71
2022/11/17 05:03:18;;;;;;;;;;;8.80;99.90;;;;;;5096473;28;19931;-69
2022/11/17 05:05:44;;;;;;;;;;;8.80;99.90;;;;;;5107607;28;19965;-71
2022/11/17 05:08:09;;;;;;;;;;;8.80;99.90;;;;;;5096234;28;20017;-69
2022/11/17 05:13:21;;;;;;;;;;;8.70;99.90;;;;;;5138633;27;19972;-70
2022/11/17 05:18:31;;;;;;;;;;;8.70;99.90;;;;;;5102061;28;19927;-71
2022/11/17 05:21:04;;;;;;;;;;;8.70;99.90;;;;;;5109108;27;19920;-70
2022/11/17 05:26:13;;;;;;;;;;;8.60;99.90;;;;;;5105196;28;19927;-71
2022/11/17 05:28:39;;;;;;;;;;;8.70;99.90;;;;;;5102930;28;20362;-71
2022/11/17 05:31:04;;;;;;;;;;;8.60;99.90;;;;;;5108908;28;19921;-69
2022/11/17 05:33:30;;;;;;;;;;;8.70;99.90;;;;;;5102301;28;20007;-68
2022/11/17 05:35:55;;;;;;;;;;;8.50;99.90;;;;;;5102039;28;19924;-68
2022/11/17 05:38:21;;;;;;;;;;;8.50;99.90;;;;;;5098756;28;19959;-66
2022/11/17 05:40:46;;;;;;;;;;;8.50;99.90;;;;;;5099643;28;20052;-69
2022/11/17 05:43:12;;;;;;;;;;;8.50;99.90;;;;;;5086335;28;19927;-70
2022/11/17 05:45:37;;;;;;;;;;;8.40;99.90;;;;;;5105414;28;20328;-69
2022/11/17 05:48:03;;;;;;;;;;;8.40;99.90;;;;;;5106126;28;19920;-70
2022/11/17 05:50:28;;;;;;;;;;;8.40;99.90;;;;;;5090088;28;20557;-72
2022/11/17 05:52:54;;;;;;;;;;;8.40;99.90;;;;;;5126022;27;19924;-72
2022/11/17 05:55:19;;;;;;;;;;;8.30;99.90;;;;;;5103058;28;19935;-71
2022/11/17 05:57:46;;;;;;;;;;;8.30;99.90;;;;;;5096455;28;19923;-70
2022/11/17 06:00:11;;;;;;;;;;;8.40;99.90;;;;;;5110890;27;19930;-71
2022/11/17 06:02:40;;;;;;;;;;;8.30;99.90;;;;;;5109332;27;19920;-70
2022/11/17 06:05:06;;;;;;;;;;;8.30;99.90;;;;;;5101803;27;19927;-72
2022/11/17 06:07:33;;;;;;;;;;;8.20;99.90;;;;;;5095099;28;19920;-70
2022/11/17 06:09:58;;;;;;;;;;;8.30;99.90;;;;;;5078650;28;19931;-72
2022/11/17 06:12:24;;;;;;;;;;;8.20;99.90;;;;;;5061510;28;20287;-70
2022/11/17 06:14:49;;;;;;;;;;;8.20;99.90;;;;;;5081759;28;20168;-71
2022/11/17 06:17:24;;;;;;;;;;;8.10;99.90;;;;;;5079383;28;20294;-72
2022/11/17 06:19:53;;;;;;;;;;;8.20;99.90;;;;;;5059086;28;19963;-71
2022/11/17 06:22:18;;;;;;;;;;;8.20;99.90;;;;;;5112600;27;19931;-72
2022/11/17 06:24:45;;;;;;;;;;;8.10;99.90;;;;;;5082705;28;20064;-69
2022/11/17 06:27:12;;;;;;;;;;;8.10;99.90;;;;;;5114506;27;19924;-71
2022/11/17 06:29:38;;;;;;;;;;;8.00;99.90;;;;;;5110522;27;20374;-69
2022/11/17 06:32:03;;;;;;;;;;;8.00;99.90;;;;;;5082076;27;19935;-71
2022/11/17 06:34:30;;;;;;;;;;;8.00;99.90;;;;;;5087107;28;19919;-74
2022/11/17 06:36:56;;;;;;;;;;;8.00;99.90;;;;;;5110108;27;20372;-69
2022/11/17 06:39:21;;;;;;;;;;;8.00;99.90;;;;;;5080492;27;19920;-71
2022/11/17 06:41:47;;;;;;;;;;;8.00;99.90;;;;;;5083956;27;19965;-71
2022/11/17 06:44:12;;;;;;;;;;;8.00;99.90;;;;;;5083930;27;19924;-73
2022/11/17 06:46:38;;;;;;;;;;;8.10;99.90;;;;;;5088255;28;20026;-71
2022/11/17 06:49:06;;;;;;;;;;;8.10;99.90;;;;;;5084917;27;20306;-71
2022/11/17 06:51:32;;;;;;;;;;;8.00;99.90;;;;;;5103682;27;20014;-72
2022/11/17 06:53:58;;;;;;;;;;;8.10;99.90;;;;;;5081039;27;20071;-71
2022/11/17 06:56:23;;;;;;;;;;;8.10;99.90;;;;;;5114802;27;19967;-72
2022/11/17 06:58:49;;;;;;;;;;;8.00;99.90;;;;;;5092733;28;19934;-71
2022/11/17 07:01:14;;;;;;;;;;;8.00;99.90;;;;;;5088390;28;19920;-71
2022/11/17 07:03:41;;;;;;;;;;;8.00;99.90;;;;;;5087584;27;19926;-69
2022/11/17 07:06:08;;;;;;;;;;;8.10;99.90;;;;;;5067024;27;19967;-70
2022/11/17 07:08:34;;;;;;;;;;;8.00;99.90;;;;;;5119145;27;19964;-70
2022/11/17 07:11:09;;;;;;;;;;;8.10;99.90;;;;;;5096518;27;19928;-71
2022/11/17 07:13:36;;;;;;;;;;;8.00;99.90;;;;;;5104092;27;19935;-69
2022/11/17 07:16:02;;;;;;;;;;;8.00;99.90;;;;;;5098470;27;19928;-70
2022/11/17 07:18:28;;;;;;;;;;;8.00;99.90;;;;;;5095666;27;19932;-72
2022/11/17 07:20:53;;;;;;;;;;;8.10;99.90;;;;;;5094565;27;19924;-72
2022/11/17 07:23:19;;;;;;;;;;;8.10;99.90;;;;;;5100928;27;20914;-71
2022/11/17 07:25:45;;;;;;;;;;;8.10;99.90;;;;;;5092934;27;19927;-69
2022/11/17 07:28:10;;;;;;;;;;;8.10;99.90;;;;;;5102853;27;20374;-73
2022/11/17 07:30:36;;;;;;;;;;;8.10;99.90;;;;;;5093762;27;19937;-70
2022/11/17 07:33:01;;;;;;;;;;;8.20;99.90;;;;;;5097761;27;20366;-70
2022/11/17 07:35:27;;;;;;;;;;;8.20;99.90;;;;;;5125706;27;19939;-69
2022/11/17 07:37:57;;;;;;;;;;;8.10;99.90;;;;;;5095508;27;19928;-71
2022/11/17 07:40:22;;;;;;;;;;;8.10;99.90;;;;;;5129968;27;19959;-68
2022/11/17 07:42:48;;;;;;;;;;;8.10;99.90;;;;;;5093695;27;19966;-70
2022/11/17 07:45:14;;;;;;;;;;;8.20;99.90;;;;;;5097429;27;19932;-68
2022/11/17 07:47:39;;;;;;;;;;;8.20;99.90;;;;;;5103568;28;20297;-70
2022/11/17 07:50:05;;;;;;;;;;;8.10;99.90;;;;;;5105549;28;19927;-70
2022/11/17 07:52:30;;;;;;;;;;;8.10;99.90;;;;;;5101120;28;20349;-68
2022/11/17 07:54:56;;;;;;;;;;;8.10;99.90;;;;;;5099162;27;19966;-69
2022/11/17 07:57:23;;;;;;;;;;;8.10;99.90;;;;;;5099561;27;19924;-69
2022/11/17 07:59:49;;;;;;;;;;;8.10;99.90;;;;;;5103127;27;19932;-68
2022/11/17 08:02:14;;;;;;;;;;;8.00;99.90;;;;;;5102778;27;19924;-68
2022/11/17 08:04:40;;;;;;;;;;;8.10;99.90;;;;;;5102482;27;20392;-66
2022/11/17 08:07:05;;;;;;;;;;;8.00;99.90;;;;;;5097964;27;19927;-68
2022/11/17 08:09:31;;;;;;;;;;;8.00;99.90;;;;;;5102408;27;19967;-68
2022/11/17 08:11:57;;;;;;;;;;;8.00;99.90;;;;;;5100874;27;20155;-69
2022/11/17 08:14:22;;;;;;;;;;;8.00;99.90;;;;;;5100349;27;19990;-66
2022/11/17 08:16:48;;;;;;;;;;;8.00;99.90;;;;;;5100557;27;19959;-69
2022/11/17 08:19:13;;;;;;;;;;;8.10;99.90;;;;;;5095672;27;20058;-67
2022/11/17 08:21:40;;;;;;;;;;;8.00;99.90;;;;;;5091500;27;19932;-69
2022/11/17 08:24:05;;;;;;;;;;;8.00;99.90;;;;;;5096207;27;20151;-68
2022/11/17 08:26:31;;;;;;;;;;;8.00;99.90;;;;;;5122832;27;19946;-66
2022/11/17 08:28:57;;;;;;;;;;;8.10;99.90;;;;;;5074946;27;19920;-67
2022/11/17 08:31:22;;;;;;;;;;;8.00;99.90;;;;;;5089791;27;19928;-68
2022/11/17 08:33:48;;;;;;;;;;;8.20;99.90;;;;;;5097901;27;20282;-69
2022/11/17 08:36:13;;;;;;;;;;;8.20;99.90;;;;;;5100628;27;19924;-67
2022/11/17 08:38:39;;;;;;;;;;;8.10;99.90;;;;;;5100635;27;20390;-70
2022/11/17 08:41:05;;;;;;;;;;;8.10;99.90;;;;;;5094245;27;19920;-67
2022/11/17 08:43:31;;;;;;;;;;;8.20;99.90;;;;;;5129119;27;19927;-69
2022/11/17 08:45:57;;;;;;;;;;;8.20;99.90;;;;;;5094152;27;19924;-68
2022/11/17 08:48:22;;;;;;;;;;;8.20;99.90;;;;;;5101191;27;19931;-69
2022/11/17 08:50:48;;;;;;;;;;;8.30;99.90;;;;;;5129575;27;19971;-69
2022/11/17 08:53:14;;;;;;;;;;;8.10;99.90;;;;;;5099089;27;20394;-68
2022/11/17 08:55:40;;;;;;;;;;;8.20;99.90;;;;;;5101476;28;20026;-69
2022/11/17 08:58:05;;;;;;;;;;;8.20;99.90;;;;;;5100290;27;20003;-68
2022/11/17 09:00:31;;;;;;;;;;;8.20;99.90;;;;;;5097587;28;20385;-68
2022/11/17 09:02:56;;;;;;;;;;;8.20;99.90;;;;;;5104914;28;19924;-69
2022/11/17 09:05:23;;;;;;;;;;;8.30;99.90;;;;;;5087563;28;20459;-67
2022/11/17 09:07:49;;;;;;;;;;;8.30;99.90;;;;;;5105487;27;19959;-67
2022/11/17 09:10:15;;;;;;;;;;;8.40;99.90;;;;;;5084268;28;19996;-67
2022/11/17 09:12:40;;;;;;;;;;;8.50;99.90;;;;;;5089575;28;19935;-68
2022/11/17 09:15:06;;;;;;;;;;;8.50;99.90;;;;;;5091188;28;19935;-67
2022/11/17 09:17:32;;;;;;;;;;;8.40;99.90;;;;;;5064771;28;20158;-68
2022/11/17 09:19:57;;;;;;;;;;;8.50;99.90;;;;;;5087211;28;20052;-67
2022/11/17 09:22:23;;;;;;;;;;;8.40;99.90;;;;;;5080852;28;19928;-67
2022/11/17 09:24:48;;;;;;;;;;;8.50;99.90;;;;;;5080495;28;19926;-68
2022/11/17 09:27:14;;;;;;;;;;;8.40;99.90;;;;;;5078655;28;19938;-70
2022/11/17 09:29:39;;;;;;;;;;;8.50;99.90;;;;;;5082217;28;20016;-68
2022/11/17 09:32:05;;;;;;;;;;;8.50;99.90;;;;;;5076602;28;19920;-68
2022/11/17 09:34:30;;;;;;;;;;;8.60;99.90;;;;;;5079429;28;19920;-69
2022/11/17 09:36:56;;;;;;;;;;;8.50;99.90;;;;;;5082718;28;20409;-69
2022/11/17 09:39:21;;;;;;;;;;;8.50;99.90;;;;;;5084474;28;19919;-70
2022/11/17 09:41:48;;;;;;;;;;;8.50;99.90;;;;;;5061130;28;19924;-68
2022/11/17 09:44:33;;;;;;;;;;;8.70;99.90;;;;;;5101390;28;19919;-69
2022/11/17 09:47:02;;;;;;;;;;;8.70;99.90;;;;;;5079395;28;19919;-68
2022/11/17 09:49:37;;;;;;;;;;;8.70;99.90;;;;;;5076659;28;19924;-68
2022/11/17 09:52:12;;;;;;;;;;;8.90;99.90;;;;;;5068469;28;19923;-68
2022/11/17 09:54:41;;;;;;;;;;;8.80;99.90;;;;;;5109148;28;20019;-69
2022/11/17 09:57:14;;;;;;;;;;;8.80;99.90;;;;;;5111915;28;19939;-68
2022/11/17 09:59:40;;;;;;;;;;;9.00;99.90;;;;;;5085653;28;19928;-68
2022/11/17 10:02:09;;;;;;;;;;;8.90;99.90;;;;;;5086818;28;19920;-68
2022/11/17 10:04:34;;;;;;;;;;;8.90;99.90;;;;;;5111557;28;19985;-68
2022/11/17 10:07:02;;;;;;;;;;;9.00;99.90;;;;;;5076071;28;19920;-69
2022/11/17 10:09:34;;;;;;;;;;;9.00;99.90;;;;;;5100061;28;19919;-68
2022/11/17 10:12:11;;;;;;;;;;;9.00;99.90;;;;;;5099071;28;19924;-68
2022/11/17 10:14:38;;;;;;;;;;;9.20;99.90;;;;;;5095786;28;19962;-66
2022/11/17 10:17:03;;;;;;;;;;;9.10;99.90;;;;;;5100384;28;19950;-69
2022/11/17 10:19:30;;;;;;;;;;;9.20;99.90;;;;;;5123211;27;19928;-68
2022/11/17 10:22:02;;;;;;;;;;;9.20;99.90;;;;;;5089376;28;19965;-68
2022/11/17 10:24:32;;;;;;;;;;;9.20;99.90;;;;;;5082283;28;19919;-67
2022/11/17 10:26:57;;;;;;;;;;;9.30;99.90;;;;;;5108988;28;19926;-68
2022/11/17 10:29:23;;;;;;;;;;;9.20;99.90;;;;;;5093726;28;20059;-67
2022/11/17 10:31:48;;;;;;;;;;;9.20;99.90;;;;;;5102163;28;19920;-67
2022/11/17 10:34:33;;;;;;;;;;;9.40;99.90;;;;;;5101718;28;20006;-67
2022/11/17 10:37:02;;;;;;;;;;;9.50;99.90;;;;;;5112798;28;20267;-67
2022/11/17 10:39:32;;;;;;;;;;;9.40;99.90;;;;;;5100569;28;20324;-68
2022/11/17 10:41:59;;;;;;;;;;;9.60;99.90;;;;;;5109785;28;19966;-68
2022/11/17 10:44:26;;;;;;;;;;;9.60;99.90;;;;;;5111786;28;20006;-69
2022/11/17 10:46:56;;;;;;;;;;;9.60;99.90;;;;;;5103676;28;19927;-68
2022/11/17 10:49:32;;;;;;;;;;;9.80;99.90;;;;;;5138984;27;19934;-68
2022/11/17 10:52:10;;;;;;;;;;;9.80;99.90;;;;;;5108811;28;19978;-68
2022/11/17 10:54:36;;;;;;;;;;;9.80;99.90;;;;;;5106079;28;19927;-66
2022/11/17 10:57:04;;;;;;;;;;;9.90;99.90;;;;;;5105293;27;19933;-68
2022/11/17 10:59:31;;;;;;;;;;;10.00;99.90;;;;;;5108762;28;19966;-67
2022/11/17 11:01:56;;;;;;;;;;;10.00;99.90;;;;;;5085100;28;20431;-67
2022/11/17 11:04:28;;;;;;;;;;;10.20;99.90;;;;;;5131842;27;19959;-68
2022/11/17 11:07:12;;;;;;;;;;;10.10;99.90;;;;;;5106077;27;19976;-66
2022/11/17 11:09:49;;;;;;;;;;;10.30;99.90;;;;;;5101088;27;20027;-67
2022/11/17 11:12:17;;;;;;;;;;;10.20;99.90;;;;;;5127846;27;19967;-68
2022/11/17 11:14:45;;;;;;;;;;;10.30;99.90;;;;;;5135752;27;20427;-67
2022/11/17 11:17:11;;;;;;;;;;;10.20;99.90;;;;;;5103592;27;19931;-68
2022/11/17 11:19:38;;;;;;;;;;;10.40;99.90;;;;;;5103332;27;19928;-68
2022/11/17 11:22:14;;;;;;;;;;;10.30;99.90;;;;;;5108242;27;20286;-68
2022/11/17 11:24:58;;;;;;;;;;;10.40;99.90;;;;;;5106069;27;19919;-68
2022/11/17 11:27:36;;;;;;;;;;;10.40;99.90;;;;;;5097185;27;20318;-68
2022/11/17 11:30:08;;;;;;;;;;;10.40;99.90;;;;;;5093850;27;19920;-69
2022/11/17 11:32:52;;;;;;;;;;;10.40;99.90;;;;;;5104854;27;19926;-68
2022/11/17 11:35:27;;;;;;;;;;;10.40;99.90;;;;;;5091929;27;20014;-67
2022/11/17 11:38:03;;;;;;;;;;;10.50;99.90;;;;;;5099386;27;20390;-67
2022/11/17 11:40:30;;;;;;;;;;;10.50;99.90;;;;;;5132742;27;20001;-68
2022/11/17 11:43:03;;;;;;;;;;;10.30;99.90;;;;;;5097380;27;20360;-68
2022/11/17 11:45:41;;;;;;;;;;;10.50;99.90;;;;;;5126034;27;20003;-69
2022/11/17 11:48:07;;;;;;;;;;;10.50;99.90;;;;;;5100254;28;20473;-67
2022/11/17 11:50:34;;;;;;;;;;;10.60;99.90;;;;;;5102701;27;19946;-68
2022/11/17 11:53:04;;;;;;;;;;;10.50;99.90;;;;;;5103977;27;19924;-69
2022/11/17 11:55:32;;;;;;;;;;;10.60;99.90;;;;;;5102613;27;19928;-68
2022/11/17 11:58:06;;;;;;;;;;;10.60;99.90;;;;;;5100940;28;19924;-67
2022/11/17 12:00:32;;;;;;;;;;;10.70;99.90;;;;;;5097737;27;20044;-69
2022/11/17 12:03:11;;;;;;;;;;;10.70;99.90;;;;;;5100954;28;20341;-68
2022/11/17 12:05:46;;;;;;;;;;;10.50;99.90;;;;;;5086485;27;20371;-70
2022/11/17 12:08:30;;;;;;;;;;;10.50;99.90;;;;;;5123396;27;19932;-69
2022/11/17 12:11:58;;;;;;;;;;;10.60;99.90;;;;;;5130263;27;20305;-69
2022/11/17 12:13:48;;;;;;;;;;;10.60;99.90;;;;;;5095267;27;21287;-69
2022/11/17 12:16:34;;;;;;;;;;;10.50;99.90;;;;;;5098035;27;20269;-67
2022/11/17 12:18:59;;;;;;;;;;;10.50;99.90;;;;;;5094693;28;20333;-68
2022/11/17 12:21:25;;;;;;;;;;;10.50;99.90;;;;;;5096143;27;20002;-68
2022/11/17 12:24:00;;;;;;;;;;;10.50;99.90;;;;;;5105411;27;19951;-70
2022/11/17 12:26:27;;;;;;;;;;;10.40;99.90;;;;;;5103085;27;19924;-67
2022/11/17 12:29:11;;;;;;;;;;;10.50;99.90;;;;;;5132302;27;19928;-67
2022/11/17 12:31:41;;;;;;;;;;;10.50;99.90;;;;;;5091427;28;19924;-67
2022/11/17 12:34:09;;;;;;;;;;;10.50;99.90;;;;;;5094732;28;20505;-67
2022/11/17 12:36:35;;;;;;;;;;;10.50;99.90;;;;;;5100656;28;20023;-67
2022/11/17 12:39:06;;;;;;;;;;;10.60;99.90;;;;;;5093185;27;20089;-68
2022/11/17 12:41:46;;;;;;;;;;;10.60;99.90;;;;;;5100079;28;20289;-68
2022/11/17 12:44:30;;;;;;;;;;;10.70;99.90;;;;;;5096651;28;19920;-68
2022/11/17 12:47:03;;;;;;;;;;;10.70;99.90;;;;;;5099638;28;19919;-68
2022/11/17 12:49:34;;;;;;;;;;;10.60;99.90;;;;;;5103593;28;19920;-67
2022/11/17 12:52:01;;;;;;;;;;;10.50;99.90;;;;;;5107151;28;19971;-67
2022/11/17 12:54:40;;;;;;;;;;;10.70;99.90;;;;;;5123812;27;19921;-67
2022/11/17 12:57:09;;;;;;;;;;;10.70;99.90;;;;;;5104584;27;19950;-68
2022/11/17 12:59:53;;;;;;;;;;;10.70;99.90;;;;;;5101226;28;19927;-67
2022/11/17 13:02:28;;;;;;;;;;;10.60;99.90;;;;;;5129135;27;20003;-67
2022/11/17 13:05:00;;;;;;;;;;;10.60;99.90;;;;;;5087122;28;19920;-68
2022/11/17 13:07:26;;;;;;;;;;;10.60;99.90;;;;;;5084671;28;19989;-67
2022/11/17 13:09:53;;;;;;;;;;;10.50;99.90;;;;;;5085065;28;20374;-69
2022/11/17 13:12:22;;;;;;;;;;;10.60;99.90;;;;;;5083299;27;19934;-67
2022/11/17 13:14:53;;;;;;;;;;;10.50;99.90;;;;;;5084725;28;20359;-68
2022/11/17 13:17:20;;;;;;;;;;;10.50;99.90;;;;;;5075321;28;19931;-67
2022/11/17 13:19:46;;;;;;;;;;;10.50;99.90;;;;;;5113330;27;19941;-69
2022/11/17 13:22:12;;;;;;;;;;;10.50;99.90;;;;;;5083466;28;20003;-68
2022/11/17 13:24:39;;;;;;;;;;;10.40;99.90;;;;;;5083565;28;20006;-69
2022/11/17 13:27:15;;;;;;;;;;;10.50;99.90;;;;;;5087796;28;19958;-69
2022/11/17 13:29:40;;;;;;;;;;;10.50;99.90;;;;;;5077812;28;19924;-68
2022/11/17 13:32:10;;;;;;;;;;;10.40;99.90;;;;;;5110579;28;20531;-69
2022/11/17 13:34:43;;;;;;;;;;;10.50;99.90;;;;;;5109881;28;20035;-67
2022/11/17 13:37:13;;;;;;;;;;;10.40;99.90;;;;;;5107772;28;19928;-69
2022/11/17 13:39:38;;;;;;;;;;;10.50;99.90;;;;;;5075575;28;19972;-69
2022/11/17 13:42:04;;;;;;;;;;;10.50;99.90;;;;;;5093466;28;19920;-69
2022/11/17 13:44:30;;;;;;;;;;;10.50;99.90;;;;;;5072480;28;19931;-69
2022/11/17 13:46:56;;;;;;;;;;;10.50;99.90;;;;;;5095816;28;19920;-68
2022/11/17 13:49:31;;;;;;;;;;;10.50;99.90;;;;;;5071911;28;20635;-69
2022/11/17 13:51:56;;;;;;;;;;;10.40;99.90;;;;;;5076528;28;19951;-69
2022/11/17 13:54:21;;;;;;;;;;;10.40;99.90;;;;;;5108721;28;19951;-69
2022/11/17 13:56:53;;;;;;;;;;;10.40;99.90;;;;;;5079961;28;19931;-69
2022/11/17 13:59:35;;;;;;;;;;;10.30;99.90;;;;;;5106031;28;19930;-69
2022/11/17 14:02:18;;;;;;;;;;;10.30;99.90;;;;;;5104979;28;20311;-69
2022/11/17 14:05:02;;;;;;;;;;;10.30;99.90;;;;;;5105228;28;19920;-69
2022/11/17 14:07:31;;;;;;;;;;;10.30;99.90;;;;;;5076774;28;19926;-70
2022/11/17 14:10:15;;;;;;;;;;;10.30;99.90;;;;;;5105874;28;19926;-69
2022/11/17 14:12:41;;;;;;;;;;;10.30;99.90;;;;;;5117740;28;19931;-69
2022/11/17 14:15:23;;;;;;;;;;;10.20;99.90;;;;;;5096560;28;20166;-68
2022/11/17 14:17:49;;;;;;;;;;;10.30;99.90;;;;;;5080204;27;19943;-68
2022/11/17 14:20:34;;;;;;;;;;;10.30;99.90;;;;;;5089278;28;19927;-68
2022/11/17 14:23:12;;;;;;;;;;;10.10;99.90;;;;;;5081437;28;19927;-68
2022/11/17 14:25:41;;;;;;;;;;;10.20;99.90;;;;;;5101153;28;20324;-68
2022/11/17 14:28:21;;;;;;;;;;;10.10;99.90;;;;;;5090958;28;20027;-68
2022/11/17 14:30:47;;;;;;;;;;;10.20;99.90;;;;;;5066765;28;19927;-68
2022/11/17 14:33:13;;;;;;;;;;;10.10;99.90;;;;;;5081902;28;19924;-69
2022/11/17 14:35:38;;;;;;;;;;;10.00;99.90;;;;;;5082674;28;19935;-68
2022/11/17 14:38:04;;;;;;;;;;;10.00;99.90;;;;;;5086913;28;19928;-68
2022/11/17 14:40:29;;;;;;;;;;;10.00;99.90;;;;;;5081059;28;19920;-69
2022/11/17 14:42:54;;;;;;;;;;;10.10;99.90;;;;;;5126694;27;19924;-67
2022/11/17 14:45:20;;;;;;;;;;;10.00;99.90;;;;;;5080111;27;20332;-68
2022/11/17 14:47:46;;;;;;;;;;;9.90;99.90;;;;;;5083619;28;20042;-68
2022/11/17 14:50:13;;;;;;;;;;;10.00;99.90;;;;;;5078128;28;19927;-67
2022/11/17 14:52:41;;;;;;;;;;;9.90;99.90;;;;;;5087918;28;20388;-69
2022/11/17 14:55:10;;;;;;;;;;;10.00;99.90;;;;;;5081813;28;20183;-68
2022/11/17 14:57:36;;;;;;;;;;;9.90;99.90;;;;;;5083316;28;20014;-67
2022/11/17 15:00:02;;;;;;;;;;;9.90;99.90;;;;;;5080843;28;20011;-68
2022/11/17 15:02:28;;;;;;;;;;;9.80;99.90;;;;;;5114985;27;19919;-68